Time;durP1;ratioP1;P1;durP2;ratioP2;P2;SDS_P1;SDS_P2;PMS_P1;PMS_P2;Temp;Humidity;BMP_temperature;BMP_pressure;BME280_temperature;BME280_humidity;BME280_pressure;Samples;Min_cycle;Max_cycle;Signal;HPM_P1;HPM_P2
2023/07/13 00:00:42;;;;;;;10.85;3.88;;;;;;;;;;5029849;28;20028;-75
2023/07/13 00:03:08;;;;;;;12.15;4.28;;;;;;;;;;5029810;28;20053;-74
2023/07/13 00:05:34;;;;;;;11.32;2.85;;;;;;;;;;5029960;28;20876;-74
2023/07/13 00:08:01;;;;;;;9.05;3.20;;;;;;;;;;5027667;28;20061;-74
2023/07/13 00:10:27;;;;;;;11.27;3.05;;;;;;;;;;5028386;28;20029;-75
2023/07/13 00:12:54;;;;;;;10.65;3.30;;;;;;;;;;5029595;28;20036;-75
2023/07/13 00:15:22;;;;;;;7.95;2.78;;;;;;;;;;5029624;28;20087;-75
2023/07/13 00:17:55;;;;;;;9.40;2.75;;;;;;;;;;5029777;28;20420;-74
2023/07/13 00:20:22;;;;;;;8.45;2.33;;;;;;;;;;5029650;28;20026;-75
2023/07/13 00:22:49;;;;;;;8.52;2.83;;;;;;;;;;5028263;28;20368;-75
2023/07/13 00:25:15;;;;;;;12.90;3.70;;;;;;;;;;5029236;28;20061;-74
2023/07/13 00:27:44;;;;;;;9.52;3.55;;;;;;;;;;5029227;28;20104;-74
2023/07/13 00:30:11;;;;;;;10.27;3.05;;;;;;;;;;5027801;28;20463;-74
2023/07/13 00:32:38;;;;;;;8.93;3.10;;;;;;;;;;5028993;28;20025;-74
2023/07/13 00:35:04;;;;;;;6.75;2.70;;;;;;;;;;5029191;28;20029;-74
2023/07/13 00:37:31;;;;;;;11.93;3.00;;;;;;;;;;5029508;28;20079;-73
2023/07/13 00:39:57;;;;;;;10.02;2.85;;;;;;;;;;5029043;28;20060;-75
2023/07/13 00:42:23;;;;;;;8.10;2.85;;;;;;;;;;5029429;28;20447;-73
2023/07/13 00:45:02;;;;;;;7.07;2.17;;;;;;;;;;5027676;28;20112;-74
2023/07/13 00:47:28;;;;;;;10.98;2.70;;;;;;;;;;5028997;28;20026;-74
2023/07/13 00:49:54;;;;;;;11.13;2.53;;;;;;;;;;5029025;28;20045;-73
2023/07/13 00:52:20;;;;;;;9.25;2.53;;;;;;;;;;5029438;28;20029;-74
2023/07/13 00:54:47;;;;;;;11.20;2.67;;;;;;;;;;5028723;28;20067;-74
2023/07/13 00:57:17;;;;;;;8.18;2.40;;;;;;;;;;5028872;28;20107;-75
2023/07/13 00:59:43;;;;;;;;;;;;;;;;;;5029537;28;20029;-74
2023/07/13 01:02:11;;;;;;;6.63;2.45;;;;;;;;;;5029061;28;19912;-74
2023/07/13 01:04:38;;;;;;;12.50;2.72;;;;;;;;;;5028669;28;20057;-74
2023/07/13 01:07:04;;;;;;;7.38;2.13;;;;;;;;;;5027710;28;20479;-74
2023/07/13 01:09:30;;;;;;;10.10;2.28;;;;;;;;;;5028476;28;20076;-73
2023/07/13 01:11:56;;;;;;;10.65;2.47;;;;;;;;;;5028820;28;20064;-73
2023/07/13 01:14:22;;;;;;;10.00;2.28;;;;;;;;;;5027519;28;20034;-74
2023/07/13 01:16:50;;;;;;;8.80;2.10;;;;;;;;;;5029004;28;20028;-74
2023/07/13 01:19:25;;;;;;;9.70;2.33;;;;;;;;;;5028294;28;20741;-74
2023/07/13 01:21:54;;;;;;;8.32;2.00;;;;;;;;;;5028904;28;20029;-74
2023/07/13 01:24:20;;;;;;;13.83;3.10;;;;;;;;;;5028380;28;20021;-75
2023/07/13 01:26:46;;;;;;;9.48;2.38;;;;;;;;;;5028368;28;20103;-74
2023/07/13 01:29:12;;;;;;;10.70;2.17;;;;;;;;;;5029263;28;20041;-73
2023/07/13 01:31:38;;;;;;;8.15;2.15;;;;;;;;;;5028289;28;20025;-74
2023/07/13 01:34:05;;;;;;;8.60;2.25;;;;;;;;;;5028816;28;20458;-74
2023/07/13 01:36:31;;;;;;;12.18;2.47;;;;;;;;;;5028808;28;20484;-73
2023/07/13 01:38:57;;;;;;;9.35;2.38;;;;;;;;;;5026806;28;20033;-74
2023/07/13 01:41:23;;;;;;;7.18;2.15;;;;;;;;;;5028702;28;20037;-74
2023/07/13 01:43:49;;;;;;;6.88;2.22;;;;;;;;;;5028728;28;20072;-74
2023/07/13 01:46:15;;;;;;;10.27;2.33;;;;;;;;;;5030595;28;20030;-75
2023/07/13 01:48:44;;;;;;;8.73;2.30;;;;;;;;;;5032035;28;20103;-74
2023/07/13 01:51:10;;;;;;;8.90;2.13;;;;;;;;;;5032210;28;20068;-74
2023/07/13 01:53:36;;;;;;;6.13;2.45;;;;;;;;;;5032131;28;20048;-74
2023/07/13 01:56:02;;;;;;;10.23;2.88;;;;;;;;;;5032150;28;20083;-73
2023/07/13 01:58:28;;;;;;;9.35;2.42;;;;;;;;;;5032128;28;20037;-74
2023/07/13 02:00:54;;;;;;;8.80;2.90;;;;;;;;;;5032176;28;20476;-73
2023/07/13 02:03:20;;;;;;;9.05;2.67;;;;;;;;;;5031675;28;20031;-73
2023/07/13 02:05:46;;;;;;;8.80;2.30;;;;;;;;;;5031554;28;20025;-73
2023/07/13 02:08:12;;;;;;;11.38;2.33;;;;;;;;;;5031843;28;20099;-74
2023/07/13 02:10:38;;;;;;;9.70;3.47;;;;;;;;;;5031722;28;20037;-74
2023/07/13 02:13:06;;;;;;;8.18;2.40;;;;;;;;;;5032254;28;20030;-74
2023/07/13 02:15:32;;;;;;;8.40;2.53;;;;;;;;;;5031653;28;20027;-73
2023/07/13 02:17:58;;;;;;;10.52;2.88;;;;;;;;;;5031203;28;20468;-73
2023/07/13 02:20:24;;;;;;;16.17;3.30;;;;;;;;;;5032173;28;20033;-73
2023/07/13 02:22:50;;;;;;;10.38;3.40;;;;;;;;;;5031928;28;20032;-74
2023/07/13 02:25:16;;;;;;;9.45;2.60;;;;;;;;;;5031320;28;20054;-76
2023/07/13 02:27:43;;;;;;;9.60;2.50;;;;;;;;;;5031762;28;20033;-73
2023/07/13 02:30:09;;;;;;;11.73;3.70;;;;;;;;;;5031209;28;20125;-74
2023/07/13 02:32:35;;;;;;;13.82;3.70;;;;;;;;;;5029953;28;20406;-74
2023/07/13 02:35:01;;;;;;;9.98;2.60;;;;;;;;;;5031890;28;20108;-74
2023/07/13 02:37:27;;;;;;;11.05;3.35;;;;;;;;;;5031292;28;20080;-74
2023/07/13 02:39:54;;;;;;;12.90;3.33;;;;;;;;;;5030753;28;20112;-74
2023/07/13 02:42:20;;;;;;;9.88;3.25;;;;;;;;;;5031219;28;20033;-74
2023/07/13 02:44:46;;;;;;;11.27;3.53;;;;;;;;;;5031451;28;20036;-74
2023/07/13 02:47:13;;;;;;;10.70;3.42;;;;;;;;;;5031589;28;20025;-73
2023/07/13 02:49:39;;;;;;;10.43;2.88;;;;;;;;;;5031086;28;20037;-73
2023/07/13 02:52:05;;;;;;;9.32;3.70;;;;;;;;;;5031376;28;20026;-73
2023/07/13 02:54:31;;;;;;;11.70;3.78;;;;;;;;;;5030411;28;20360;-73
2023/07/13 02:56:57;;;;;;;12.43;4.03;;;;;;;;;;5030675;28;20029;-74
2023/07/13 02:59:23;;;;;;;10.43;3.75;;;;;;;;;;5031076;28;20033;-74
2023/07/13 03:01:49;;;;;;;9.65;3.20;;;;;;;;;;5030920;28;20033;-75
2023/07/13 03:04:19;;;;;;;11.93;3.67;;;;;;;;;;5029430;28;20369;-74
2023/07/13 03:06:45;;;;;;;11.70;4.38;;;;;;;;;;5029449;28;20029;-75
2023/07/13 03:09:12;;;;;;;10.63;3.88;;;;;;;;;;5029643;28;20510;-74
2023/07/13 03:11:38;;;;;;;10.50;3.53;;;;;;;;;;5030498;28;20029;-74
2023/07/13 03:14:05;;;;;;;12.00;4.03;;;;;;;;;;5030847;28;20462;-74
2023/07/13 03:16:31;;;;;;;14.05;5.40;;;;;;;;;;5030795;28;20052;-75
2023/07/13 03:18:57;;;;;;;12.50;4.68;;;;;;;;;;5030058;28;20464;-75
2023/07/13 03:21:23;;;;;;;13.77;4.68;;;;;;;;;;5030568;28;20061;-74
2023/07/13 03:23:49;;;;;;;11.45;3.67;;;;;;;;;;5031138;28;20079;-75
2023/07/13 03:26:18;;;;;;;14.75;5.22;;;;;;;;;;5030319;28;20046;-76
2023/07/13 03:28:44;;;;;;;10.93;3.33;;;;;;;;;;5030574;28;20083;-75
2023/07/13 03:31:12;;;;;;;9.35;4.13;;;;;;;;;;5030856;28;20029;-74
2023/07/13 03:33:38;;;;;;;12.50;4.88;;;;;;;;;;5030748;28;20029;-74
2023/07/13 03:36:05;;;;;;;9.68;3.92;;;;;;;;;;5030745;28;20403;-74
2023/07/13 03:38:31;;;;;;;16.80;5.55;;;;;;;;;;5030545;28;20029;-74
2023/07/13 03:40:57;;;;;;;11.30;4.75;;;;;;;;;;5029614;28;20021;-74
2023/07/13 03:43:23;;;;;;;13.13;5.18;;;;;;;;;;5030203;28;20029;-74
2023/07/13 03:45:49;;;;;;;23.27;6.53;;;;;;;;;;5030188;28;20029;-74
2023/07/13 03:48:16;;;;;;;13.38;5.32;;;;;;;;;;5030107;28;20103;-73
2023/07/13 03:50:42;;;;;;;17.17;5.07;;;;;;;;;;5029982;28;20565;-73
2023/07/13 03:53:09;;;;;;;17.65;5.22;;;;;;;;;;5030447;28;20036;-72
2023/07/13 03:55:35;;;;;;;11.70;5.75;;;;;;;;;;5030783;28;20324;-72
2023/07/13 03:58:21;;;;;;;12.50;5.45;;;;;;;;;;5030180;28;20074;-74
2023/07/13 04:00:47;;;;;;;9.68;4.22;;;;;;;;;;5028765;28;20025;-73
2023/07/13 04:03:13;;;;;;;8.30;4.30;;;;;;;;;;5030104;28;20055;-74
2023/07/13 04:05:40;;;;;;;14.25;5.55;;;;;;;;;;5029203;28;20036;-74
2023/07/13 04:08:06;;;;;;;12.70;4.35;;;;;;;;;;5027984;28;20031;-74
2023/07/13 04:10:32;;;;;;;13.20;5.10;;;;;;;;;;5012148;28;20034;-74
2023/07/13 04:12:58;;;;;;;14.27;4.63;;;;;;;;;;5029324;28;20072;-74
2023/07/13 04:15:24;;;;;;;11.73;4.80;;;;;;;;;;5029630;28;20398;-74
2023/07/13 04:17:50;;;;;;;17.25;5.57;;;;;;;;;;5029323;28;20032;-74
2023/07/13 04:20:16;;;;;;;12.68;5.10;;;;;;;;;;5029569;28;20439;-74
2023/07/13 04:22:42;;;;;;;10.95;4.95;;;;;;;;;;5029908;28;20152;-73
2023/07/13 04:25:08;;;;;;;15.48;4.88;;;;;;;;;;5029518;28;20046;-74
2023/07/13 04:27:34;;;;;;;15.02;4.88;;;;;;;;;;5029342;28;20034;-74
2023/07/13 04:30:00;;;;;;;11.23;4.72;;;;;;;;;;5028679;28;20400;-74
2023/07/13 04:32:27;;;;;;;13.50;5.10;;;;;;;;;;5029497;28;20033;-74
2023/07/13 04:34:53;;;;;;;15.30;5.80;;;;;;;;;;5029890;28;20442;-75
2023/07/13 04:37:19;;;;;;;14.00;5.13;;;;;;;;;;5029151;28;20010;-75
2023/07/13 04:39:45;;;;;;;13.35;4.38;;;;;;;;;;5029741;28;20049;-74
2023/07/13 04:42:11;;;;;;;17.70;5.53;;;;;;;;;;5029448;28;20080;-73
2023/07/13 04:44:37;;;;;;;12.43;5.55;;;;;;;;;;5027916;28;20033;-74
2023/07/13 04:47:03;;;;;;;9.95;4.60;;;;;;;;;;5029074;28;20026;-74
2023/07/13 04:49:30;;;;;;;12.07;5.57;;;;;;;;;;5029348;28;20431;-74
2023/07/13 04:51:56;;;;;;;13.98;4.85;;;;;;;;;;5028825;28;20033;-75
2023/07/13 04:54:22;;;;;;;18.85;6.70;;;;;;;;;;5027678;28;20029;-75
2023/07/13 04:56:48;;;;;;;15.05;6.13;;;;;;;;;;5028042;28;20431;-74
2023/07/13 04:59:14;;;;;;;14.20;5.30;;;;;;;;;;5029541;28;20033;-74
2023/07/13 05:01:41;;;;;;;19.33;7.00;;;;;;;;;;5028807;28;20026;-74
2023/07/13 05:04:07;;;;;;;10.65;4.18;;;;;;;;;;5029097;28;20025;-74
2023/07/13 05:06:34;;;;;;;17.17;5.10;;;;;;;;;;5028756;28;20032;-74
2023/07/13 05:09:00;;;;;;;14.93;4.90;;;;;;;;;;5028448;28;20092;-74
2023/07/13 05:11:26;;;;;;;19.23;5.70;;;;;;;;;;5028930;28;20022;-74
2023/07/13 05:13:52;;;;;;;22.35;7.60;;;;;;;;;;5028703;28;20026;-73
2023/07/13 05:16:18;;;;;;;14.35;5.60;;;;;;;;;;5028194;28;20037;-73
2023/07/13 05:18:44;;;;;;;13.10;6.03;;;;;;;;;;5028840;28;20029;-74
2023/07/13 05:21:11;;;;;;;14.27;5.15;;;;;;;;;;5032461;28;20502;-74
2023/07/13 05:23:37;;;;;;;16.85;5.82;;;;;;;;;;5032559;28;20033;-74
2023/07/13 05:26:04;;;;;;;17.20;5.82;;;;;;;;;;5032465;28;20057;-74
2023/07/13 05:28:31;;;;;;;20.45;7.40;;;;;;;;;;5032697;28;20034;-74
2023/07/13 05:30:57;;;;;;;12.75;5.78;;;;;;;;;;5032721;28;21020;-75
2023/07/13 05:33:23;;;;;;;15.15;5.90;;;;;;;;;;5032664;28;20368;-74
2023/07/13 05:35:49;;;;;;;13.45;5.28;;;;;;;;;;5032507;28;20519;-75
2023/07/13 05:38:16;;;;;;;21.58;7.32;;;;;;;;;;5031384;28;20227;-75
2023/07/13 05:40:46;;;;;;;20.20;7.60;;;;;;;;;;5032552;28;20026;-75
2023/07/13 05:43:12;;;;;;;16.30;7.78;;;;;;;;;;5031385;28;20506;-76
2023/07/13 05:45:38;;;;;;;24.40;8.05;;;;;;;;;;5030565;28;20021;-74
2023/07/13 05:48:04;;;;;;;16.33;5.90;;;;;;;;;;5031720;28;20032;-75
2023/07/13 05:50:30;;;;;;;17.40;7.22;;;;;;;;;;5032602;28;20043;-74
2023/07/13 05:52:57;;;;;;;19.90;7.18;;;;;;;;;;5032275;28;20029;-74
2023/07/13 05:55:23;;;;;;;15.10;6.07;;;;;;;;;;5032763;28;20033;-74
2023/07/13 05:57:49;;;;;;;23.25;10.23;;;;;;;;;;5032472;28;20029;-74
2023/07/13 06:00:16;;;;;;;20.85;7.68;;;;;;;;;;5031880;28;20026;-74
2023/07/13 06:02:42;;;;;;;33.40;11.02;;;;;;;;;;5030806;28;20056;-73
2023/07/13 06:05:08;;;;;;;22.48;10.02;;;;;;;;;;5032669;28;20487;-75
2023/07/13 06:07:34;;;;;;;14.82;7.68;;;;;;;;;;5032169;28;20142;-74
2023/07/13 06:10:00;;;;;;;22.58;9.70;;;;;;;;;;5031783;28;20120;-75
2023/07/13 06:12:27;;;;;;;24.48;9.55;;;;;;;;;;5031526;28;20466;-75
2023/07/13 06:14:53;;;;;;;19.65;9.65;;;;;;;;;;5030647;28;20025;-75
2023/07/13 06:17:19;;;;;;;28.02;12.40;;;;;;;;;;5031204;28;20033;-75
2023/07/13 06:19:45;;;;;;;26.30;11.93;;;;;;;;;;5032149;28;20040;-74
2023/07/13 06:22:11;;;;;;;20.33;10.38;;;;;;;;;;5032463;28;20022;-76
2023/07/13 06:24:37;;;;;;;17.20;7.55;;;;;;;;;;5033627;28;20037;-79
2023/07/13 06:27:03;;;;;;;11.18;3.65;;;;;;;;;;5035859;28;20137;-80
2023/07/13 06:29:29;;;;;;;9.25;4.13;;;;;;;;;;5032359;28;20045;-81
2023/07/13 06:31:55;;;;;;;14.98;5.70;;;;;;;;;;5031434;28;20040;-81
2023/07/13 06:34:21;;;;;;;23.30;9.25;;;;;;;;;;5032094;28;20029;-80
2023/07/13 06:36:47;;;;;;;14.45;5.57;;;;;;;;;;5031371;28;20387;-80
2023/07/13 06:39:13;;;;;;;18.77;8.48;;;;;;;;;;5031122;28;20053;-78
2023/07/13 06:41:39;;;;;;;17.15;7.55;;;;;;;;;;5032166;28;20053;-79
2023/07/13 06:44:06;;;;;;;12.80;7.03;;;;;;;;;;5032887;28;20025;-79
2023/07/13 06:46:32;;;;;;;15.77;7.38;;;;;;;;;;5032777;28;20022;-78
2023/07/13 06:48:58;;;;;;;11.88;6.82;;;;;;;;;;5031990;28;20025;-79
2023/07/13 06:51:25;;;;;;;12.88;7.65;;;;;;;;;;5031968;28;20022;-79
2023/07/13 06:53:51;;;;;;;12.98;6.80;;;;;;;;;;5031571;28;20499;-79
2023/07/13 06:56:18;;;;;;;18.17;9.13;;;;;;;;;;5031152;28;20033;-79
2023/07/13 06:58:44;;;;;;;14.98;8.07;;;;;;;;;;5032174;28;20099;-77
2023/07/13 07:01:10;;;;;;;12.30;5.80;;;;;;;;;;5031142;28;20029;-78
2023/07/13 07:03:36;;;;;;;15.05;8.63;;;;;;;;;;5032095;28;20412;-80
2023/07/13 07:06:06;;;;;;;24.38;14.05;;;;;;;;;;5033234;28;20029;-78
2023/07/13 07:08:36;;;;;;;16.10;5.93;;;;;;;;;;5034221;28;20026;-80
2023/07/13 07:11:02;;;;;;;16.48;8.05;;;;;;;;;;5033460;28;20032;-77
2023/07/13 07:13:28;;;;;;;14.00;8.43;;;;;;;;;;5033774;28;20029;-81
2023/07/13 07:15:54;;;;;;;16.42;7.88;;;;;;;;;;5033475;28;20029;-79
2023/07/13 07:18:23;;;;;;;14.38;5.90;;;;;;;;;;5031894;28;20029;-80
2023/07/13 07:20:50;;;;;;;12.55;5.35;;;;;;;;;;5031665;28;20022;-77
2023/07/13 07:23:19;;;;;;;12.52;5.38;;;;;;;;;;5031610;28;20065;-77
2023/07/13 07:25:45;;;;;;;16.05;6.85;;;;;;;;;;5031187;28;20092;-77
2023/07/13 07:28:12;;;;;;;16.45;7.07;;;;;;;;;;5030459;28;20519;-78
2023/07/13 07:30:42;;;;;;;16.10;8.05;;;;;;;;;;5030509;28;20026;-76
2023/07/13 07:33:08;;;;;;;15.63;6.43;;;;;;;;;;5031500;28;20029;-78
2023/07/13 07:35:34;;;;;;;16.95;5.90;;;;;;;;;;5029151;28;20030;-77
2023/07/13 07:38:00;;;;;;;15.43;9.68;;;;;;;;;;5031037;28;20028;-79
2023/07/13 07:40:26;;;;;;;12.90;5.95;;;;;;;;;;5031767;28;20033;-77
2023/07/13 07:42:52;;;;;;;11.00;5.25;;;;;;;;;;5029190;28;20021;-78
2023/07/13 07:45:19;;;;;;;19.08;8.60;;;;;;;;;;5030695;28;20029;-76
2023/07/13 07:47:45;;;;;;;18.20;9.70;;;;;;;;;;5030091;28;20033;-76
2023/07/13 07:50:11;;;;;;;13.65;6.32;;;;;;;;;;5031332;28;20416;-80
2023/07/13 07:52:37;;;;;;;17.70;9.27;;;;;;;;;;5029715;28;20026;-78
2023/07/13 07:55:05;;;;;;;20.40;10.90;;;;;;;;;;5029475;28;20129;-76
2023/07/13 07:57:31;;;;;;;20.27;12.43;;;;;;;;;;5031754;28;20380;-79
2023/07/13 07:59:58;;;;;;;15.18;9.40;;;;;;;;;;5029824;28;20642;-80
2023/07/13 08:02:25;;;;;;;25.52;13.75;;;;;;;;;;5029134;28;20029;-78
2023/07/13 08:04:51;;;;;;;16.98;8.60;;;;;;;;;;5031650;28;20049;-77
2023/07/13 08:07:17;;;;;;;18.38;10.07;;;;;;;;;;5030339;28;20716;-79
2023/07/13 08:09:43;;;;;;;20.63;10.88;;;;;;;;;;5029390;28;20037;-80
2023/07/13 08:12:09;;;;;;;25.20;12.57;;;;;;;;;;5029417;28;20032;-77
2023/07/13 08:14:36;;;;;;;17.83;9.30;;;;;;;;;;5028948;28;20033;-78
2023/07/13 08:17:02;;;;;;;19.30;13.50;;;;;;;;;;5028855;28;20036;-78
2023/07/13 08:19:28;;;;;;;17.48;9.55;;;;;;;;;;5028490;28;20025;-77
2023/07/13 08:21:54;;;;;;;26.27;14.55;;;;;;;;;;5027863;28;20083;-78
2023/07/13 08:24:22;;;;;;;23.40;13.30;;;;;;;;;;5030650;28;20032;-77
2023/07/13 08:26:48;;;;;;;19.85;10.40;;;;;;;;;;5030232;28;20431;-78
2023/07/13 08:29:14;;;;;;;14.52;8.35;;;;;;;;;;5030504;28;20040;-77
2023/07/13 08:31:42;;;;;;;15.38;8.55;;;;;;;;;;5028525;28;20117;-77
2023/07/13 08:34:08;;;;;;;17.52;11.48;;;;;;;;;;5028753;28;20073;-77
2023/07/13 08:36:34;;;;;;;16.67;9.00;;;;;;;;;;5030595;28;20454;-78
2023/07/13 08:39:00;;;;;;;14.18;8.02;;;;;;;;;;5029657;28;20072;-75
2023/07/13 08:41:26;;;;;;;15.85;7.63;;;;;;;;;;5031454;28;20040;-75
2023/07/13 08:43:56;;;;;;;10.73;5.93;;;;;;;;;;5030446;28;20026;-77
2023/07/13 08:46:23;;;;;;;14.13;8.77;;;;;;;;;;5032708;28;20033;-78
2023/07/13 08:48:57;;;;;;;12.52;6.75;;;;;;;;;;5032217;28;20507;-80
2023/07/13 08:51:32;;;;;;;12.90;6.82;;;;;;;;;;5029015;28;20070;-79
2023/07/13 08:54:00;;;;;;;13.77;8.35;;;;;;;;;;5029801;28;20140;-77
2023/07/13 08:56:28;;;;;;;17.27;7.40;;;;;;;;;;5030214;28;20548;-79
2023/07/13 08:59:27;;;;;;;16.17;6.47;;;;;;;;;;5030194;28;20029;-78
2023/07/13 09:02:11;;;;;;;12.88;7.60;;;;;;;;;;5017283;28;20430;-76
2023/07/13 09:04:40;;;;;;;12.77;6.82;;;;;;;;;;5029125;28;20026;-77
2023/07/13 09:07:09;;;;;;;13.18;7.13;;;;;;;;;;5029632;28;20029;-78
2023/07/13 09:09:35;;;;;;;14.05;6.47;;;;;;;;;;5029063;28;20049;-75
2023/07/13 09:12:20;;;;;;;14.88;6.60;;;;;;;;;;5029330;28;20541;-79
2023/07/13 09:14:51;;;;;;;13.52;5.80;;;;;;;;;;5029912;28;20104;-78
2023/07/13 09:17:19;;;;;;;11.35;6.03;;;;;;;;;;5029757;28;20476;-78
2023/07/13 09:19:49;;;;;;;14.77;5.85;;;;;;;;;;5030614;28;20025;-78
2023/07/13 09:22:17;;;;;;;13.07;5.78;;;;;;;;;;5030489;28;20025;-78
2023/07/13 09:24:46;;;;;;;11.30;5.28;;;;;;;;;;5029995;28;20026;-78
2023/07/13 09:27:24;;;;;;;10.45;4.65;;;;;;;;;;5030053;28;20032;-76
2023/07/13 09:29:54;;;;;;;6.88;3.50;;;;;;;;;;5030879;28;20128;-78
2023/07/13 09:32:24;;;;;;;10.57;4.75;;;;;;;;;;5031254;28;20026;-78
2023/07/13 09:34:51;;;;;;;13.18;6.15;;;;;;;;;;5032166;28;20056;-76
2023/07/13 09:37:17;;;;;;;15.65;6.45;;;;;;;;;;5035529;28;20905;-77
2023/07/13 09:39:43;;;;;;;10.85;4.47;;;;;;;;;;5033415;28;20475;-78
2023/07/13 09:42:12;;;;;;;8.80;4.50;;;;;;;;;;5031480;28;20034;-79
2023/07/13 09:44:39;;;;;;;8.25;3.63;;;;;;;;;;5032325;28;20431;-78
2023/07/13 09:47:19;;;;;;;7.72;3.03;;;;;;;;;;5030923;28;20084;-77
2023/07/13 09:49:45;;;;;;;6.78;3.67;;;;;;;;;;5032048;28;20124;-77
2023/07/13 09:52:14;;;;;;;9.15;3.22;;;;;;;;;;5032337;28;20037;-77
2023/07/13 09:54:40;;;;;;;10.13;3.83;;;;;;;;;;5029938;28;20118;-77
2023/07/13 09:57:13;;;;;;;8.55;3.95;;;;;;;;;;5031284;28;20049;-76
2023/07/13 09:59:49;;;;;;;5.05;2.72;;;;;;;;;;5030090;28;20026;-76
2023/07/13 10:02:35;;;;;;;9.63;4.25;;;;;;;;;;5028462;28;20775;-76
2023/07/13 10:05:11;;;;;;;8.52;3.25;;;;;;;;;;5028740;28;20029;-76
2023/07/13 10:07:44;;;;;;;10.23;4.32;;;;;;;;;;5032974;28;20040;-78
2023/07/13 10:10:17;;;;;;;9.57;5.07;;;;;;;;;;5033516;28;20049;-76
2023/07/13 10:12:44;;;;;;;9.95;4.43;;;;;;;;;;5033013;28;20037;-76
2023/07/13 10:15:15;;;;;;;14.82;5.00;;;;;;;;;;5031022;28;21307;-76
2023/07/13 10:17:41;;;;;;;12.02;4.82;;;;;;;;;;5032426;28;20033;-77
2023/07/13 10:20:12;;;;;;;13.43;5.40;;;;;;;;;;5034045;28;20025;-76
2023/07/13 10:22:44;;;;;;;10.82;3.83;;;;;;;;;;5031676;28;20044;-76
2023/07/13 10:25:17;;;;;;;9.90;3.38;;;;;;;;;;5032397;28;20565;-75
2023/07/13 10:27:43;;;;;;;9.13;4.00;;;;;;;;;;5032988;28;20064;-78
2023/07/13 10:30:13;;;;;;;9.35;2.85;;;;;;;;;;5032049;28;20120;-76
2023/07/13 10:32:39;;;;;;;9.90;4.60;;;;;;;;;;5032319;28;20065;-76
2023/07/13 10:35:07;;;;;;;13.95;5.50;;;;;;;;;;5030857;28;20280;-77
2023/07/13 10:38:01;;;;;;;8.63;3.95;;;;;;;;;;5031490;28;20026;-75
2023/07/13 10:40:50;;;;;;;10.32;4.30;;;;;;;;;;5030705;28;20057;-76
2023/07/13 10:43:22;;;;;;;8.88;3.88;;;;;;;;;;5028447;28;20179;-74
2023/07/13 10:45:49;;;;;;;9.32;4.30;;;;;;;;;;5031319;28;20078;-75
2023/07/13 10:48:16;;;;;;;10.90;4.72;;;;;;;;;;5031224;28;20057;-73
2023/07/13 10:50:43;;;;;;;11.95;5.05;;;;;;;;;;5031732;28;20025;-75
2023/07/13 10:53:20;;;;;;;11.88;6.50;;;;;;;;;;5031396;28;20083;-75
2023/07/13 10:55:53;;;;;;;13.65;6.25;;;;;;;;;;5031412;28;20025;-74
2023/07/13 10:58:21;;;;;;;13.15;5.38;;;;;;;;;;5031104;28;20475;-74
2023/07/13 11:00:49;;;;;;;10.43;5.40;;;;;;;;;;5031191;28;20057;-74
2023/07/13 11:03:17;;;;;;;11.10;5.18;;;;;;;;;;5031704;28;20029;-74
2023/07/13 11:05:43;;;;;;;8.68;4.00;;;;;;;;;;5031073;28;20026;-74
2023/07/13 11:08:22;;;;;;;9.43;4.00;;;;;;;;;;5031245;28;20057;-74
2023/07/13 11:10:55;;;;;;;9.70;3.42;;;;;;;;;;5031229;28;20038;-74
2023/07/13 11:13:38;;;;;;;11.18;4.10;;;;;;;;;;5031022;28;20109;-74
2023/07/13 11:16:16;;;;;;;10.90;3.90;;;;;;;;;;5030697;28;20028;-77
2023/07/13 11:18:46;;;;;;;9.18;3.60;;;;;;;;;;5030115;28;20040;-74
2023/07/13 11:21:21;;;;;;;7.35;3.20;;;;;;;;;;5032164;28;20033;-75
2023/07/13 11:23:54;;;;;;;6.47;2.35;;;;;;;;;;5031453;28;20399;-75
2023/07/13 11:26:39;;;;;;;6.25;2.53;;;;;;;;;;5030773;28;20046;-74
2023/07/13 11:29:28;;;;;;;10.43;3.65;;;;;;;;;;5029405;28;20450;-74
2023/07/13 11:31:56;;;;;;;7.23;2.77;;;;;;;;;;5026958;28;20033;-73
2023/07/13 11:34:34;;;;;;;7.07;2.38;;;;;;;;;;5029113;28;20083;-73
2023/07/13 11:37:00;;;;;;;5.68;1.85;;;;;;;;;;5027153;28;20029;-73
2023/07/13 11:39:30;;;;;;;6.57;1.85;;;;;;;;;;5030902;28;20076;-74
2023/07/13 11:41:58;;;;;;;4.97;1.92;;;;;;;;;;5029794;28;20029;-75
2023/07/13 11:44:24;;;;;;;6.97;2.05;;;;;;;;;;5030762;28;20033;-75
2023/07/13 11:46:52;;;;;;;6.65;1.88;;;;;;;;;;5029823;28;20068;-74
2023/07/13 11:49:23;;;;;;;6.18;2.72;;;;;;;;;;5030874;28;20095;-74
2023/07/13 11:51:54;;;;;;;6.45;2.20;;;;;;;;;;5030882;28;20119;-75
2023/07/13 11:54:29;;;;;;;5.78;2.10;;;;;;;;;;5030523;28;20549;-75
2023/07/13 11:56:57;;;;;;;8.02;2.65;;;;;;;;;;5030290;28;20030;-74
2023/07/13 11:59:24;;;;;;;6.15;2.17;;;;;;;;;;5030543;28;20058;-74
2023/07/13 12:01:55;;;;;;;6.30;2.88;;;;;;;;;;5030441;28;20495;-75
2023/07/13 12:04:23;;;;;;;8.93;2.67;;;;;;;;;;5030442;28;20037;-74
2023/07/13 12:06:54;;;;;;;8.38;2.75;;;;;;;;;;5029782;28;20104;-76
2023/07/13 12:09:25;;;;;;;5.28;1.77;;;;;;;;;;5029698;28;20034;-74
2023/07/13 12:11:51;;;;;;;12.60;4.03;;;;;;;;;;5028537;28;20076;-73
2023/07/13 12:14:18;;;;;;;6.75;3.00;;;;;;;;;;5028070;28;20045;-74
2023/07/13 12:16:46;;;;;;;9.13;2.88;;;;;;;;;;5028020;28;20028;-75
2023/07/13 12:19:20;;;;;;;8.20;3.35;;;;;;;;;;5027176;28;20026;-74
2023/07/13 12:21:46;;;;;;;8.63;2.55;;;;;;;;;;5028619;28;20028;-74
2023/07/13 12:24:16;;;;;;;6.03;2.67;;;;;;;;;;5028571;28;20025;-76
2023/07/13 12:26:43;;;;;;;9.70;2.88;;;;;;;;;;5028427;28;20049;-76
2023/07/13 12:29:15;;;;;;;11.70;3.17;;;;;;;;;;5028638;28;20127;-76
2023/07/13 12:31:43;;;;;;;6.78;2.58;;;;;;;;;;5029268;28;20022;-75
2023/07/13 12:34:14;;;;;;;8.45;3.15;;;;;;;;;;5028364;28;20064;-75
2023/07/13 12:36:47;;;;;;;5.68;2.05;;;;;;;;;;5028764;28;20159;-74
2023/07/13 12:39:15;;;;;;;5.68;2.47;;;;;;;;;;5029536;28;20039;-74
2023/07/13 12:41:43;;;;;;;9.07;3.22;;;;;;;;;;5029071;28;20029;-74
2023/07/13 12:44:14;;;;;;;8.45;2.72;;;;;;;;;;5028877;28;20068;-74
2023/07/13 12:46:40;;;;;;;6.35;1.80;;;;;;;;;;5029139;28;20036;-74
2023/07/13 12:49:07;;;;;;;6.32;2.42;;;;;;;;;;5029125;28;20045;-73
2023/07/13 12:51:33;;;;;;;8.43;2.72;;;;;;;;;;5028899;28;20434;-73
2023/07/13 12:54:11;;;;;;;7.78;2.83;;;;;;;;;;5027395;28;20736;-72
2023/07/13 12:56:37;;;;;;;6.10;2.47;;;;;;;;;;5029191;28;20393;-73
2023/07/13 12:59:06;;;;;;;6.72;2.65;;;;;;;;;;5029644;28;20102;-73
2023/07/13 13:01:34;;;;;;;5.68;1.92;;;;;;;;;;5027174;28;20096;-73
2023/07/13 13:04:01;;;;;;;6.97;2.10;;;;;;;;;;5028610;28;20116;-72
2023/07/13 13:06:30;;;;;;;6.03;2.38;;;;;;;;;;5028657;28;20367;-73
2023/07/13 13:08:58;;;;;;;6.32;2.22;;;;;;;;;;5026880;28;20482;-72
2023/07/13 13:11:25;;;;;;;5.15;1.63;;;;;;;;;;5028777;28;20053;-73
2023/07/13 13:13:52;;;;;;;5.10;1.55;;;;;;;;;;5026679;28;20117;-73
2023/07/13 13:16:21;;;;;;;4.47;1.90;;;;;;;;;;5027142;28;20032;-73
2023/07/13 13:18:47;;;;;;;6.63;2.30;;;;;;;;;;5027131;28;20120;-73
2023/07/13 13:21:13;;;;;;;5.55;2.08;;;;;;;;;;5026846;28;20430;-74
2023/07/13 13:23:39;;;;;;;8.63;2.80;;;;;;;;;;5026948;28;20030;-74
2023/07/13 13:26:09;;;;;;;6.80;2.53;;;;;;;;;;5027377;28;20092;-75
2023/07/13 13:28:35;;;;;;;3.15;1.73;;;;;;;;;;5028546;28;20030;-73
2023/07/13 13:31:01;;;;;;;6.05;1.92;;;;;;;;;;5028701;28;20057;-74
2023/07/13 13:33:27;;;;;;;6.40;2.55;;;;;;;;;;5028735;28;20029;-73
2023/07/13 13:35:53;;;;;;;9.13;3.78;;;;;;;;;;5028324;28;20506;-73
2023/07/13 13:38:25;;;;;;;8.98;2.88;;;;;;;;;;5028324;28;20030;-74
2023/07/13 13:40:51;;;;;;;5.78;2.00;;;;;;;;;;5030064;28;20036;-74
2023/07/13 13:43:27;;;;;;;8.48;3.20;;;;;;;;;;5032162;28;20116;-74
2023/07/13 13:46:00;;;;;;;7.05;2.10;;;;;;;;;;5050242;28;20029;-75
2023/07/13 13:48:33;;;;;;;5.40;1.83;;;;;;;;;;5052592;28;20028;-74
2023/07/13 13:51:00;;;;;;;4.22;2.03;;;;;;;;;;5051657;28;20028;-75
2023/07/13 13:53:26;;;;;;;4.03;1.52;;;;;;;;;;5052293;28;20057;-73
2023/07/13 13:55:53;;;;;;;5.50;1.60;;;;;;;;;;5051623;28;20028;-73
2023/07/13 13:58:19;;;;;;;5.03;2.35;;;;;;;;;;5052234;28;20491;-74
2023/07/13 14:00:45;;;;;;;3.95;1.38;;;;;;;;;;5052359;28;20390;-74
2023/07/13 14:03:18;;;;;;;6.22;2.45;;;;;;;;;;5051750;28;20040;-74
2023/07/13 14:05:46;;;;;;;7.80;1.77;;;;;;;;;;5052182;28;20475;-75
2023/07/13 14:08:14;;;;;;;4.88;1.98;;;;;;;;;;5051456;28;20024;-75
2023/07/13 14:10:40;;;;;;;5.00;2.08;;;;;;;;;;5050424;28;20052;-74
2023/07/13 14:13:12;;;;;;;6.15;1.90;;;;;;;;;;5050906;28;20101;-76
2023/07/13 14:15:38;;;;;;;6.15;1.98;;;;;;;;;;5050300;28;20053;-74
2023/07/13 14:18:04;;;;;;;6.88;1.80;;;;;;;;;;5051379;28;20169;-73
2023/07/13 14:20:30;;;;;;;3.92;1.95;;;;;;;;;;5050634;28;20446;-73
2023/07/13 14:22:57;;;;;;;4.95;1.90;;;;;;;;;;5051418;28;20025;-74
2023/07/13 14:25:23;;;;;;;4.97;2.10;;;;;;;;;;5051459;28;20071;-74
2023/07/13 14:27:52;;;;;;;3.80;1.90;;;;;;;;;;5051623;28;20068;-75
2023/07/13 14:30:22;;;;;;;6.50;2.00;;;;;;;;;;5050145;28;20088;-74
2023/07/13 14:32:49;;;;;;;;;;;;;;;;;;5052229;28;20336;-74
2023/07/13 14:35:16;;;;;;;5.28;2.08;;;;;;;;;;5051663;28;19909;-72
2023/07/13 14:37:42;;;;;;;5.97;2.20;;;;;;;;;;5051665;28;20091;-73
2023/07/13 14:40:18;;;;;;;3.75;1.63;;;;;;;;;;5051654;28;20442;-74